Olga, Minnesota
Current Conditions -  °F | °C
As of 10:15 AM on Wednesday 28 Jan 2015 (Local Time) from KFSE Reporting Station
Haze Haze  
Wind Chill: 25°   Ceiling: 800
Heat Index: 32°   Visibility: 5mi
Dew Point: 30°   Wind: 8mph
Humidity: 93%   Direction: 150°SSE
Pressure: 29.79"   Gusts: NA
Location:  47.8043°N, 95.6441°W
Report Text: KFSE 281615Z AUTO 15007KT 5SM BR OVC008 00/M01 A2979 RMK AO2
Loading
Personal Weather Stations






























Interactive Weather Map New forecast layout! Learn more

10-Day Weather Forecast

Advertisements
Track Severe Weather on mobile